Date,TemperatureHighF,TemperatureAvgF,TemperatureLowF,DewpointHighF,DewpointAvgF,DewpointLowF,HumidityHigh,HumidityAvg,HumidityLow,PressureMaxIn,PressureMinIn,WindSpeedMaxMPH,WindSpeedAvgMPH,GustSpeedMaxMPH,PrecipitationSumIn
2013-1-1,40,35,25,29,23,10,74,61,50,29.62,29.53,5,3,12,0.00
2013-1-2,38,27,19,15,12,8,67,53,36,29.74,29.62,5,3,11,0.00
2013-1-3,44,29,23,18,15,13,69,57,32,29.74,29.68,4,2,8,0.00
2013-1-4,42,33,28,23,20,18,69,59,42,29.68,29.59,5,3,11,0.00
2013-1-5,53,35,27,25,21,17,87,57,31,29.80,29.62,6,2,13,0.00
2013-1-6,53,39,30,34,28,23,97,68,42,29.77,29.62,4,2,9,0.00
2013-1-7,57,39,25,30,25,21,89,60,28,29.88,29.65,4,2,9,0.00
2013-1-8,55,38,25,33,29,22,99,72,41,29.91,29.85,4,1,8,0.00
2013-1-9,55,40,27,41,34,27,99,79,49,29.88,29.71,5,1,12,0.00
2013-1-10,58,43,34,33,25,22,68,50,26,29.97,29.77,5,2,11,0.00
2013-1-11,46,39,29,43,33,23,99,79,60,29.97,29.68,2,1,5,0.00
2013-1-12,47,43,40,46,42,40,99,98,89,29.74,29.67,2,1,6,0.00
2013-1-13,49,44,40,46,44,40,99,97,86,29.74,29.65,3,1,7,0.00
2013-1-14,59,48,37,56,43,32,99,83,58,29.80,29.59,3,1,8,0.00
2013-1-15,39,36,33,34,29,24,98,76,60,29.84,29.77,2,1,7,0.00
2013-1-16,35,33,30,35,33,30,99,98,87,29.77,29.50,3,1,7,0.00
2013-1-17,49,39,33,34,28,23,95,66,42,29.68,29.56,4,2,10,0.00
2013-1-18,40,30,24,23,11,3,66,47,25,29.94,29.62,4,2,12,0.00
2013-1-19,56,40,27,35,24,12,75,53,33,29.88,29.59,5,3,12,0.00
2013-1-20,59,43,28,31,23,9,74,48,19,29.65,29.44,8,4,15,0.00
2013-1-21,36,28,21,20,12,6,73,51,40,29.68,29.53,4,2,9,0.00
2013-1-22,28,20,11,16,1,-10,65,43,24,29.74,29.50,6,4,13,0.00
2013-1-23,25,14,9,-1,-5,-10,57,42,27,29.77,29.74,5,3,10,0.00
2013-1-24,31,18,9,3,-1,-4,68,46,25,29.88,29.71,6,3,13,0.00
2013-1-25,31,18,11,17,5,-3,96,61,31,29.88,29.68,4,2,10,0.00
2013-1-26,41,22,11,16,9,3,91,61,33,29.85,29.65,4,2,9,0.00
2013-1-27,45,27,15,14,10,6,76,52,25,29.94,29.85,4,2,8,0.00
2013-1-28,34,28,20,34,25,12,99,87,63,29.94,29.62,4,1,8,0.00
2013-1-29,65,42,34,42,38,34,99,86,40,29.71,29.62,3,1,7,0.00
2013-1-30,56,47,38,51,46,38,99,98,81,29.68,29.26,6,2,15,0.00
2013-1-31,51,40,27,51,21,7,99,47,31,29.47,29.15,9,6,18,0.00
2013-2-1,33,26,22,13,5,-100,61,46,33,29.77,29.47,6,4,13,0.00
2013-2-2,39,25,18,20,9,5,92,53,31,29.82,29.68,4,2,9,0.00
2013-2-3,44,27,19,24,19,14,99,75,42,29.68,29.48,3,1,5,0.00
2013-2-4,38,27,21,21,11,7,77,51,31,29.62,29.50,6,3,12,0.00
2013-2-5,32,28,26,28,25,15,98,88,63,29.62,29.56,2,1,5,0.00
2013-2-6,46,33,26,31,21,6,99,66,36,29.85,29.56,5,2,10,0.00
2013-2-7,42,28,21,21,10,4,71,49,26,29.94,29.83,2,1,5,0.00
2013-2-8,34,30,26,34,29,21,99,93,72,29.83,29.36,5,3,14,0.00
2013-2-9,48,28,18,26,17,5,99,69,32,29.83,29.44,6,3,15,0.00
2013-2-10,69,30,12,24,12,5,88,56,14,29.94,29.83,3,1,6,0.00
2013-2-11,49,38,27,46,37,24,99,96,86,29.83,29.41,4,1,10,0.00
2013-2-12,51,40,34,38,27,23,99,60,37,29.60,29.44,6,3,12,0.00
2013-2-13,60,38,23,37,25,22,98,64,25,29.59,29.41,2,1,6,0.00
2013-2-14,64,39,28,35,30,23,99,75,24,29.62,29.44,3,1,8,0.00
2013-2-15,64,41,28,40,34,28,99,80,34,29.65,29.59,3,1,6,0.00
2013-2-16,47,35,27,34,26,15,99,71,41,29.59,29.44,3,2,9,0.00
2013-2-17,37,26,15,16,5,-1,61,41,25,29.62,29.38,9,5,17,0.00
2013-2-18,41,26,15,14,5,0,55,42,25,29.77,29.62,8,4,17,0.00
2013-2-19,53,38,25,42,31,14,99,77,48,29.77,29.41,7,2,14,0.00
2013-2-20,37,30,23,25,13,8,66,49,33,29.62,29.44,7,5,18,0.00
2013-2-21,42,28,21,14,12,8,69,50,32,29.80,29.62,7,4,16,0.00
2013-2-22,50,32,23,30,22,14,82,66,33,29.88,29.80,3,2,8,0.00
2013-2-23,44,37,32,44,36,30,99,97,84,29.80,29.50,3,2,10,0.00
2013-2-24,51,38,31,39,32,21,99,78,55,29.59,29.46,6,2,13,0.00
2013-2-25,60,38,27,28,24,21,80,59,29,29.77,29.59,4,1,8,0.00
2013-2-26,53,37,27,37,30,26,99,77,46,29.82,29.56,4,2,11,0.00
2013-2-27,51,43,35,49,41,34,99,92,76,29.56,29.29,5,3,17,0.00
2013-2-28,61,43,38,40,34,28,97,72,38,29.38,29.32,3,1,7,0.00
2013-3-1,51,40,32,32,28,25,86,65,45,29.47,29.35,4,2,9,0.00
2013-3-2,52,36,27,29,24,14,98,64,35,29.47,29.44,4,2,9,0.00
2013-3-3,48,33,26,27,20,16,94,62,33,29.47,29.41,5,3,12,0.00
2013-3-4,48,34,23,22,18,15,72,55,34,29.56,29.47,6,4,13,0.00
2013-3-5,60,40,28,29,24,18,76,55,28,29.65,29.56,4,2,10,0.00
2013-3-6,41,37,32,36,31,29,93,79,69,29.62,29.53,6,3,16,0.00
2013-3-7,39,33,29,33,31,26,99,91,75,29.67,29.56,5,3,12,0.00
2013-3-8,42,34,29,35,30,26,99,86,67,29.74,29.62,3,1,8,0.00
2013-3-9,72,45,30,31,25,21,99,52,18,29.83,29.72,3,1,9,0.00
2013-3-10,64,41,25,37,32,25,99,75,33,29.88,29.83,3,1,6,0.00
2013-3-11,60,46,37,46,40,34,99,84,54,29.83,29.71,4,2,9,0.00
2013-3-12,50,48,39,50,46,34,99,96,79,29.71,29.43,5,4,13,0.00
2013-3-13,61,44,32,37,29,21,99,60,31,29.56,29.50,5,2,11,0.00
2013-3-14,41,35,28,26,12,5,65,40,26,29.59,29.53,8,5,18,0.00
2013-3-15,50,37,27,29,17,6,63,45,28,29.62,29.44,5,3,11,0.00
2013-3-16,51,35,29,32,25,19,99,69,35,29.56,29.47,3,1,10,0.00
2013-3-17,42,34,27,29,19,9,97,58,35,29.83,29.56,5,2,10,0.00
2013-3-18,46,31,23,31,17,-100,99,61,34,29.88,29.65,5,2,10,0.00
2013-3-19,47,36,31,40,34,29,99,91,65,29.65,29.41,5,2,10,0.00
2013-3-20,54,39,30,29,19,15,80,46,27,29.56,29.50,6,3,13,0.00
2013-3-21,48,34,28,27,22,11,87,63,34,29.53,29.38,5,2,10,0.00
2013-3-22,48,35,27,20,16,12,65,46,31,29.56,29.44,5,3,11,0.00
2013-3-23,53,39,31,22,19,16,63,46,28,29.59,29.50,7,4,14,0.00
2013-3-24,59,40,29,26,21,17,68,49,24,29.59,29.44,5,2,9,0.00
2013-3-25,39,35,33,36,30,26,99,82,61,29.44,29.29,4,1,9,0.00
2013-3-26,63,43,31,35,29,25,99,62,27,29.53,29.35,4,1,9,0.00
2013-3-27,62,45,34,30,25,20,67,48,25,29.59,29.53,5,2,10,0.00
2013-3-28,62,45,35,34,29,27,77,56,32,29.68,29.59,5,2,9,0.00
2013-3-29,67,48,37,32,28,24,69,47,27,29.71,29.65,5,2,11,0.00
2013-3-30,71,48,35,34,28,19,92,51,20,29.74,29.68,3,1,7,0.00
2013-3-31,63,44,30,45,35,-100,99,77,34,29.71,29.41,5,2,12,0.00
2013-4-1,69,49,36,48,38,11,99,70,33,29.56,29.38,7,2,14,0.00
2013-4-2,50,38,30,17,12,-100,50,35,23,29.68,29.56,6,4,13,0.00
2013-4-3,52,39,30,15,11,8,45,32,21,29.80,29.68,7,4,14,0.00
2013-4-4,64,42,27,32,22,13,78,47,23,29.88,29.68,4,2,9,0.00
2013-4-5,73,50,38,36,26,16,83,45,16,29.68,29.44,5,2,12,0.00
2013-4-6,60,44,33,29,18,10,75,39,15,29.83,29.62,4,2,10,0.00
2013-4-7,61,46,35,43,36,27,95,69,43,29.83,29.65,6,3,15,0.00
2013-4-8,82,56,38,54,43,38,99,70,27,29.68,29.62,4,1,8,0.00
2013-4-9,88,66,45,54,44,34,98,54,16,29.65,29.59,7,2,13,0.00
2013-4-10,90,63,49,53,48,43,99,63,28,29.61,29.50,5,1,13,0.00
2013-4-11,65,54,43,55,48,36,99,83,53,29.65,29.47,4,2,12,0.00
2013-4-12,46,41,38,44,39,34,99,92,68,29.65,29.44,5,3,13,0.00
2013-4-13,72,48,37,41,37,34,99,71,29,29.62,29.45,3,2,8,0.00
2013-4-14,69,52,42,48,34,25,99,58,24,29.77,29.62,5,2,12,0.00
2013-4-15,70,50,38,38,30,25,85,49,25,29.88,29.77,4,1,8,0.00
2013-4-16,73,54,41,52,46,36,97,76,46,29.88,29.71,5,2,13,0.00
2013-4-17,82,61,47,54,44,35,97,60,21,29.82,29.71,3,1,8,0.00
2013-4-18,68,53,43,53,44,39,99,74,37,29.85,29.71,4,2,13,0.00
2013-4-19,74,58,50,61,56,50,99,92,61,29.71,29.41,6,3,17,0.00
2013-4-20,63,53,46,56,35,23,99,55,26,29.80,29.41,5,3,11,0.00
2013-4-21,46,37,28,30,21,14,75,53,43,30.06,29.80,3,2,10,0.00
2013-4-22,65,45,25,34,28,19,79,55,30,30.07,29.94,5,2,13,0.00
2013-4-23,52,44,39,40,36,31,84,74,63,29.94,29.68,3,2,12,0.00
2013-4-24,74,53,38,49,44,37,99,75,39,29.71,29.53,4,2,11,0.00
2013-4-25,74,57,43,50,34,24,99,49,16,29.80,29.56,5,2,11,0.00
2013-4-26,80,57,37,40,35,28,95,50,20,29.88,29.80,4,1,8,0.00
2013-4-27,81,58,42,38,31,22,73,41,14,29.89,29.83,3,1,7,0.00
2013-4-28,79,57,38,51,38,27,99,56,20,29.83,29.77,4,1,10,0.00
2013-4-29,59,53,49,49,46,43,87,77,66,29.80,29.74,2,1,8,0.00
2013-4-30,81,59,45,46,36,25,85,49,18,29.85,29.77,4,1,10,0.00
2013-5-1,83,58,40,45,38,30,85,54,20,29.94,29.83,4,1,12,0.00
2013-5-2,85,59,39,55,43,39,99,61,24,29.94,29.85,3,1,7,0.00
2013-5-3,79,58,45,44,40,34,91,57,23,29.91,29.86,3,2,8,0.00
2013-5-4,83,56,39,49,42,38,99,66,23,29.88,29.80,4,1,8,0.00
2013-5-5,79,55,40,45,40,37,92,63,27,29.83,29.77,3,1,10,0.00
2013-5-6,83,58,41,53,46,40,99,69,32,29.80,29.74,3,1,7,0.00
2013-5-7,88,62,43,59,52,42,99,75,37,29.74,29.68,3,1,7,0.00
2013-5-8,70,59,49,63,57,49,99,93,70,29.71,29.62,3,1,10,0.00
2013-5-9,75,59,49,61,55,49,99,89,57,29.65,29.56,3,1,7,0.00
2013-5-10,94,65,47,65,52,-100,99,70,29,29.62,29.59,3,1,8,0.00
2013-5-11,71,60,55,63,58,54,99,95,73,29.59,29.44,4,1,11,0.01
2013-5-12,80,61,51,57,41,-100,99,56,24,29.59,29.41,5,3,12,0.00
2013-5-13,64,52,44,33,27,22,57,39,27,29.68,29.59,5,3,12,0.00
2013-5-14,72,53,40,40,32,23,84,50,21,29.71,29.65,3,2,7,0.00
2013-5-15,71,56,41,54,47,39,97,75,38,29.68,29.44,4,2,9,0.00
2013-5-16,87,60,50,57,31,-100,99,65,28,29.53,29.44,4,1,8,0.00
2013-5-17,82,65,54,52,35,-100,89,43,24,29.77,29.53,3,1,7,0.00
2013-5-18,79,58,49,53,49,42,92,72,33,29.83,29.77,2,1,6,0.00
2013-5-19,57,55,50,57,53,45,99,95,68,29.83,29.74,3,2,9,0.00
2013-5-20,87,67,55,68,61,55,99,84,53,29.74,29.62,3,1,8,0.00
2013-5-21,95,73,58,73,65,58,99,78,48,29.62,29.54,3,1,8,0.00
2013-5-22,84,68,58,69,63,58,99,86,54,29.59,29.53,3,1,6,0.00
2013-5-23,84,67,61,69,64,61,99,89,58,29.57,29.47,4,2,12,0.00
2013-5-24,76,56,45,67,54,42,99,94,68,29.59,29.41,5,2,12,0.00
2013-5-25,55,47,39,45,41,36,99,82,56,29.62,29.56,6,3,13,0.00
2013-5-26,70,62,46,38,36,34,68,39,30,29.76,29.61,6,2,10,0.00
2013-5-27,83,61,40,49,41,34,95,54,20,29.77,29.71,4,1,8,0.00
2013-5-28,85,59,48,56,51,45,99,80,30,29.77,29.71,3,1,6,0.00
2013-5-29,87,68,54,69,61,54,99,80,53,29.71,29.65,2,1,6,0.00
2013-5-30,102,79,62,71,64,59,99,65,31,29.71,29.68,3,1,8,0.00
2013-5-31,105,80,64,72,65,60,96,64,33,29.71,29.65,4,1,8,0.00
2013-6-1,96,77,64,71,66,61,96,70,42,29.65,29.59,5,2,10,0.00
2013-6-2,93,75,62,70,64,-100,97,73,46,29.59,29.50,4,2,8,0.00
2013-6-3,86,70,64,71,66,51,99,89,51,29.56,29.50,3,1,6,0.00
2013-6-4,83,69,55,50,44,38,73,43,27,29.70,29.56,4,2,8,0.00
2013-6-5,88,68,54,54,45,38,95,48,25,29.77,29.68,4,1,9,0.00
2013-6-6,82,64,55,60,56,46,99,78,34,29.73,29.65,4,2,11,0.00
2013-6-7,62,59,56,62,59,56,99,99,97,29.65,29.38,3,1,10,0.00
2013-6-8,84,68,54,65,60,54,99,79,51,29.65,29.35,3,2,7,0.00
2013-6-9,95,72,57,65,59,54,99,68,29,29.74,29.65,16,1,76,0.00
2013-6-10,74,64,61,66,63,60,99,94,74,29.74,29.53,4,1,9,0.00
2013-6-11,85,72,64,71,64,57,99,77,51,29.53,29.38,5,2,10,0.00
2013-6-12,82,70,61,58,54,51,79,57,39,29.53,29.44,5,2,11,0.00
2013-6-13,68,61,54,61,57,54,99,88,71,29.53,29.29,5,2,13,0.00
2013-6-14,74,60,51,55,53,49,99,80,48,29.56,29.29,3,2,10,0.00
2013-6-15,92,70,55,59,54,47,91,63,27,29.62,29.56,3,1,7,0.00
2013-6-16,84,71,56,66,59,52,99,72,34,29.62,29.47,4,1,8,0.00
2013-6-17,92,76,65,69,65,60,97,70,46,29.59,29.50,4,2,10,0.00
2013-6-18,101,70,63,69,65,63,99,86,36,29.56,29.53,3,0,6,0.00
2013-6-19,88,68,55,64,54,43,99,68,26,29.74,29.56,3,1,8,0.00
2013-6-20,88,68,54,59,54,51,96,67,35,29.80,29.74,4,1,9,0.00
2013-6-22,87,84,83,62,60,59,46,44,44,29.77,29.77,3,3,9,0.00
2013-6-24,89,84,80,71,67,63,65,57,48,29.65,29.61,3,2,6,0.00
2013-6-25,97,79,68,71,64,-100,88,65,44,29.65,29.51,4,2,8,0.00
2013-6-26,91,79,72,70,67,64,91,70,48,29.53,29.50,3,2,7,0.00
2013-6-27,88,75,70,72,70,67,99,83,57,29.53,29.38,4,1,9,0.00
2013-6-28,90,76,68,72,70,65,99,83,55,29.38,29.30,5,2,10,0.00
2013-6-29,89,74,67,71,68,65,97,84,51,29.44,29.32,4,2,9,0.00
2013-6-30,89,72,66,74,70,66,99,94,62,29.59,29.44,4,2,8,0.00
2013-7-1,79,72,67,76,71,67,99,98,83,29.68,29.59,3,2,8,0.00
2013-7-2,82,73,70,74,71,70,99,93,76,29.77,29.68,4,2,9,1.24
2013-7-3,81,72,67,81,72,67,100,99,95,29.80,29.74,3,1,8,0.34
2013-7-4,91,78,69,76,72,69,100,84,60,29.80,29.74,3,2,8,4.94
2013-7-5,92,79,73,74,72,69,98,81,56,29.77,29.71,3,1,8,0.00
2013-7-6,97,82,74,75,71,68,94,73,44,29.74,29.65,3,1,7,0.00
2013-7-12,81,72,66,70,67,65,99,85,61,29.68,29.65,2,1,8,0.00
2013-7-13,89,75,66,75,71,66,99,90,62,29.80,29.68,3,1,7,0.00
2013-7-14,92,78,71,75,72,71,99,83,53,29.83,29.79,3,1,8,1.42
2013-7-15,97,83,74,74,71,68,89,70,41,29.80,29.71,2,0,5,0.00
2013-7-16,97,84,75,72,67,63,85,59,35,29.74,29.71,2,0,5,0.00
2013-7-17,99,80,74,70,67,65,77,66,36,29.74,29.68,3,1,7,0.00
2013-7-18,102,84,75,75,71,66,87,67,33,29.68,29.62,3,1,6,0.00
2013-7-19,101,87,80,78,75,73,86,70,49,29.62,29.50,5,2,9,0.00
2013-7-20,96,86,77,75,70,67,80,62,47,29.53,29.46,5,2,11,0.00
2013-7-21,92,79,72,71,68,59,92,71,38,29.62,29.53,2,1,6,0.00
2013-7-22,88,75,72,75,72,70,99,90,66,29.62,29.53,3,0,7,0.00
2013-7-23,91,77,71,77,73,70,99,88,59,29.50,29.35,3,1,10,0.00
2013-7-24,88,77,68,74,65,54,99,68,47,29.59,29.38,3,1,8,0.00
2013-7-25,67,63,61,61,56,52,99,78,63,29.65,29.59,3,1,8,0.00
2013-7-26,83,69,60,67,61,59,99,78,46,29.65,29.62,3,1,6,0.00
2013-7-27,87,73,62,67,64,59,99,76,41,29.68,29.62,4,2,9,0.00
2013-7-28,83,71,64,71,67,64,99,87,55,29.62,29.59,3,1,8,0.00
2013-7-29,89,74,66,70,63,49,99,74,33,29.68,29.60,3,1,7,0.00
2013-7-30,86,73,61,59,55,52,85,55,37,29.71,29.68,3,1,6,0.00
2013-7-31,87,71,61,64,59,56,86,67,38,29.71,29.68,3,1,9,0.00
2013-8-1,78,69,64,68,65,62,99,89,69,29.68,29.53,3,1,8,0.00
2013-8-2,85,73,63,71,63,57,99,75,43,29.58,29.50,4,1,8,0.00
2013-8-3,79,72,66,67,63,56,85,72,56,29.59,29.53,3,1,9,0.00
2013-8-4,86,71,62,64,56,49,90,63,36,29.59,29.53,4,1,8,0.00
2013-8-5,80,68,59,59,50,44,74,55,30,29.65,29.59,3,1,6,0.00
2013-8-6,84,68,58,59,56,52,98,70,33,29.71,29.65,3,1,8,0.00
2013-8-7,83,72,65,68,63,58,91,74,52,29.73,29.68,4,2,9,0.00
2013-8-8,85,72,66,73,70,66,99,92,67,29.68,29.65,4,2,9,0.00
2013-8-9,86,76,71,75,73,70,99,92,70,29.65,29.50,4,2,9,0.00
2013-8-10,87,77,68,72,61,55,95,61,40,29.66,29.53,4,1,8,0.00
2013-8-11,83,70,58,64,57,51,91,65,34,29.71,29.65,3,1,6,0.00
2013-8-21,91,74,64,73,66,58,99,80,38,29.74,29.68,3,1,8,0.00
2013-8-22,83,73,66,74,70,66,99,91,68,29.68,29.56,2,0,5,0.00
2013-8-23,85,73,67,69,60,53,99,67,35,29.68,29.56,2,0,6,0.00
2013-8-24,80,68,60,59,55,48,95,66,36,29.85,29.68,3,1,6,0.00
2013-8-25,83,65,55,65,51,-100,99,69,37,29.88,29.77,3,1,7,0.00
2013-8-26,86,74,66,68,60,54,89,63,45,29.77,29.59,4,1,7,0.00
2013-8-27,84,74,69,72,68,67,97,83,58,29.59,29.50,3,1,9,0.00
2013-8-31,86,76,69,73,70,68,96,84,66,29.56,29.50,3,1,8,0.00
2013-9-1,86,74,70,74,68,-100,99,88,67,29.56,29.52,3,1,7,0.00
2013-9-2,85,75,70,77,73,70,99,93,70,29.53,29.44,2,1,5,0.71
2013-9-3,83,74,67,77,65,55,99,77,46,29.56,29.44,3,1,7,1.22
2013-9-4,85,71,63,58,56,51,83,61,31,29.62,29.56,3,2,8,0.00
2013-9-5,83,69,60,60,52,43,87,59,31,29.71,29.59,3,1,7,0.00
2013-9-6,72,60,52,49,45,42,84,60,36,29.77,29.71,2,1,5,0.00
2013-9-8,84,68,62,63,50,-100,86,59,34,29.68,29.51,4,1,8,0.00
2013-9-9,74,61,50,59,49,43,83,67,41,29.77,29.68,3,1,7,0.00
2013-9-10,83,73,65,71,67,60,94,83,65,29.74,29.68,4,2,9,0.00
2013-9-11,92,77,71,75,71,69,99,84,56,29.71,29.64,4,1,9,0.00
2013-9-12,84,73,66,73,70,66,99,89,69,29.65,29.44,4,1,9,0.00
2013-9-13,76,68,58,67,60,50,99,78,50,29.53,29.39,4,2,9,0.00
2013-9-14,71,58,52,49,46,44,79,67,46,29.71,29.53,3,2,6,0.00
2013-9-15,74,59,53,55,44,-100,93,67,34,29.71,29.68,2,1,6,0.00
2013-9-16,73,62,56,59,54,46,95,78,48,29.77,29.65,2,1,7,0.00
2013-9-17,55,54,53,47,45,43,73,71,70,29.80,29.77,2,1,5,0.00
2013-9-19,77,58,46,56,51,46,99,80,39,29.74,29.68,3,1,6,0.00
2013-9-20,81,61,48,60,55,48,99,85,43,29.68,29.65,3,1,7,0.00
2013-9-21,74,64,51,69,62,51,99,94,78,29.65,29.44,5,2,10,0.00
2013-9-22,73,60,54,66,49,-100,99,72,43,29.56,29.41,4,2,9,0.00
2013-9-23,53,53,53,42,42,42,67,67,67,29.56,29.56,1,1,3,0.00
2013-9-24,71,65,56,45,44,43,66,48,37,29.59,29.56,2,1,6,0.00
2013-9-25,74,59,46,52,46,42,96,65,34,29.59,29.56,1,0,5,0.00
2013-9-26,70,58,50,57,54,50,99,86,61,29.68,29.59,1,0,4,0.00
2013-9-27,71,59,48,52,50,48,99,75,49,29.77,29.68,1,0,4,0.00
2013-9-28,78,64,52,55,52,51,98,68,42,29.82,29.78,2,1,6,0.00
2013-9-29,73,55,49,54,47,-100,99,83,39,29.77,29.68,2,0,5,0.00
2013-9-30,73,57,47,56,51,47,99,85,43,29.68,29.62,2,0,6,0.00
2013-10-1,64,60,55,59,58,55,99,92,82,29.62,29.59,0,0,0,0.00
2013-10-2,83,75,60,61,60,58,94,61,46,29.62,29.56,3,1,7,0.00
2013-10-7,77,68,59,69,65,51,99,92,76,29.65,29.50,6,3,13,0.00
2013-10-8,70,58,52,51,44,41,81,62,37,29.83,29.62,3,1,6,0.00
2013-10-9,68,56,47,49,47,44,90,72,50,29.88,29.82,2,1,7,0.00
2013-10-10,65,57,53,57,52,48,91,84,70,29.80,29.68,3,2,8,0.00
2013-10-11,67,62,56,59,56,54,94,83,74,29.68,29.62,2,2,8,0.00
2013-10-12,72,62,54,55,48,36,81,63,28,29.80,29.68,3,2,9,0.00
2013-10-13,69,55,51,52,46,-100,90,76,54,29.86,29.80,2,1,7,0.00
2013-10-14,69,54,48,50,48,46,96,81,48,29.85,29.79,2,1,5,0.00
2013-10-15,77,68,65,57,48,44,67,48,34,29.74,29.71,3,2,5,0.00
2013-10-16,59,59,59,58,58,58,98,98,98,29.61,29.61,1,1,3,0.00
2013-10-17,75,66,61,62,61,60,99,85,61,29.53,29.44,2,2,6,0.00
2013-10-18,72,61,55,63,47,41,99,63,41,29.62,29.41,4,2,8,0.00
2013-10-19,53,48,46,42,41,40,84,78,66,29.62,29.62,0,0,1,0.00
2013-10-21,55,55,55,45,45,45,69,69,69,29.66,29.66,2,2,5,0.00